FKYS/NSI METAR and TAF weather

Enter ICAO airport designator
Station Type Date Time Source
FKYS METAR 2019/12/14 06:00 UTC NOAA

FKYS 140600Z 27003KT 240V310 4500 BR FEW003 BKN006 21/21 Q1017 TEMPO 2000 BR


Station Type Date Time Source
FKYS Decoded METAR 2019/12/14 06:00 UTC NOAA

Yaounde, Cameroon (FKYS) 03-50N 011-31E 760M
Dec 14, 2019 - 01:00 AM EST / 2019.12.14 0600 UTC
Wind: from the W (270 degrees) at 3 MPH (3 KT) (direction variable):0
Visibility: 2 mile(s):0
Sky conditions: mostly cloudy
Weather: mist
Temperature: 69 F (21 C)
Dew Point: 69 F (21 C)
Relative Humidity: 100%
Pressure (altimeter): 30.03 in. Hg (1017 hPa)
ob: FKYS 140600Z 27003KT 240V310 4500 BR FEW003 BKN006 21/21 Q1017 TEMPO 2000 BR
cycle: 6

Station Type Date Time Source
FKYS TAF 2019/12/14 06:21 UTC NOAA

TAF FKYS 140500Z 1406/1506 25005KT 8000 SCT003 BKN006
BECMG 1408/1410 BKN020

Example: see airport list